Flight Track Log - Related Links

Times and Time Zones

All times are in EDT time to prevent confusion due to time zone crossing. See the UAL3776 flight status page for this flight to view local times or setup timezone preferences in your user account.

Time Position Orientation Groundspeed Altitude Reporting Facility
EDT Latitude Longitude Course Direction KTS MPH feet Rate Location/Type
Wed 12:38:41 PM 25.7983 -80.2722 81° East 144 166 800  Level Miami Center
Wed 12:39:55 PM 25.8108 -80.1825 81° East 227 261 2,600 2,128 Climbing Miami Center
Wed 12:41:02 PM 25.8331 -80.1139 70° East 279 321 5,800 2,750 Climbing Miami Center
Wed 12:41:55 PM 25.9103 -80.1253 352° North 291 335 8,100 2,549 Climbing Miami Center
Wed 12:42:55 PM 25.9717 -80.1778 322° Northwest 304 350 10,600 2,450 Climbing Miami Center
Wed 12:43:55 PM 26.0308 -80.2350 319° Northwest 311 358 13,000 2,400 Climbing Miami Center
Wed 12:44:55 PM 26.0942 -80.2992 318° Northwest 311 358 15,400 1,950 Climbing Miami Center
Wed 12:45:55 PM 26.1636 -80.3636 320° Northwest 311 358 16,900 1,100 Climbing Miami Center
Wed 12:46:55 PM 26.2433 -80.4331 322° Northwest 334 384 17,600 1,150 Climbing Miami Center
Wed 12:47:55 PM 26.3342 -80.4800 335° Northwest 361 415 19,200 1,700 Climbing Miami Center
Wed 12:48:55 PM 26.4481 -80.5206 342° North 386 444 21,000 1,050 Climbing Miami Center
Wed 12:49:55 PM 26.5517 -80.5469 347° North 406 467 21,300 950 Climbing Miami Center
Wed 12:50:55 PM 26.6806 -80.5789 348° North 423 487 22,900 1,650 Climbing Miami Center
Wed 12:51:55 PM 26.7864 -80.6056 347° North 429 494 24,600 1,100 Climbing Miami Center
Wed 12:52:55 PM 26.9003 -80.6347 347° North 429 494 25,100 700 Climbing Miami Center
Wed 12:53:55 PM 27.0250 -80.6644 348° North 435 501 26,000 1,100 Climbing Miami Center
Wed 12:54:55 PM 27.1453 -80.6942 348° North 440 506 27,300 1,000 Climbing Miami Center
Wed 12:55:55 PM 27.2656 -80.7236 348° North 440 506 28,000 350 Climbing Miami Center
Wed 12:56:55 PM 27.3856 -80.7675 342° North 445 512 28,000 100 Level Miami Center
Wed 12:57:55 PM 27.5197 -80.8189 341° North 457 526 28,200 700 Climbing Miami Center
Wed 12:58:55 PM 27.6442 -80.8444 350° North 457 526 29,400 1,350 Climbing Miami Center
Wed 12:59:55 PM 27.7686 -80.8767 347° North 452 520 30,900 1,500 Climbing Miami Center
Wed 01:00:55 PM 27.8908 -80.9044 349° North 441 507 32,400 1,050 Climbing Miami Center
Wed 01:01:55 PM 28.0050 -80.9344 347° North 441 507 33,000 300 Climbing Miami Center
Wed 01:02:55 PM 28.1294 -80.9625 349° North 436 502 33,000  Level Miami Center
Wed 01:03:55 PM 28.2517 -80.9931 348° North 442 509 33,000  Level Miami Center
Wed 01:06:04 PM 28.5167 -81.0592 348° North 465 535 33,000  Level Jacksonville Center
Wed 01:07:04 PM 28.6381 -81.0878 348° North 452 520 33,000  Level Jacksonville Center
Wed 01:08:04 PM 28.7617 -81.1186 348° North 452 520 33,000  Level Jacksonville Center
Wed 01:09:04 PM 28.8872 -81.1378 352° North 452 520 33,000  Level Jacksonville Center
Wed 01:10:04 PM 29.0167 -81.1522 354° North 457 526 33,000  Level Jacksonville Center
Wed 01:11:04 PM 29.1444 -81.1714 353° North 462 532 33,000  Level Jacksonville Center
Wed 01:12:04 PM 29.2739 -81.1856 355° North 467 537 33,000  Level Jacksonville Center
Wed 01:13:04 PM 29.3994 -81.2025 353° North 462 532 33,000  Level Jacksonville Center
Wed 01:14:04 PM 29.5269 -81.2194 353° North 462 532 33,000  Level Jacksonville Center
Wed 01:15:04 PM 29.6544 -81.2339 354° North 462 532 33,000  Level Jacksonville Center
Wed 01:16:04 PM 29.7819 -81.2508 353° North 462 532 33,000  Level Jacksonville Center
Wed 01:17:04 PM 29.9094 -81.2656 354° North 462 532 33,000  Level Jacksonville Center
Wed 01:18:04 PM 30.0372 -81.2803 354° North 462 532 33,000  Level Jacksonville Center
Wed 01:19:04 PM 30.1647 -81.2972 353° North 462 532 33,000  Level Jacksonville Center
Wed 01:20:04 PM 30.2900 -81.3122 354° North 462 532 33,000  Level Jacksonville Center
Wed 01:21:04 PM 30.4197 -81.3292 354° North 462 532 33,000  Level Jacksonville Center
Wed 01:22:04 PM 30.5453 -81.3464 353° North 462 532 33,000  Level Jacksonville Center
Wed 01:23:04 PM 30.6728 -81.3614 354° North 462 532 33,000  Level Jacksonville Center
Wed 01:24:04 PM 30.8003 -81.3786 353° North 467 537 33,000  Level Jacksonville Center
Wed 01:25:04 PM 30.9281 -81.3958 353° North 462 532 33,000  Level Jacksonville Center
Wed 01:26:04 PM 31.0556 -81.4133 353° North 462 532 33,000  Level Jacksonville Center
Wed 01:27:04 PM 31.1811 -81.4308 353° North 453 521 33,000  Level Jacksonville Center
Wed 01:28:04 PM 31.3144 -81.4239 North 465 535 33,000  Level Jacksonville Center
Wed 01:29:03 PM 31.4228 -81.3906 15° North 448 516 33,000  Level Jacksonville Center
Wed 01:30:04 PM 31.5642 -81.3539 12° North 464 534 33,000  Level Jacksonville Center
Wed 01:31:04 PM 31.6911 -81.3203 13° North 464 534 33,000  Level Jacksonville Center
Wed 01:32:04 PM 31.8036 -81.2914 12° North 464 534 33,000  Level Jacksonville Center
Wed 01:33:04 PM 31.9347 -81.2572 12° North 470 541 33,000  Level Jacksonville Center
Wed 01:34:04 PM 32.0594 -81.2231 13° North 465 535 33,000  Level Jacksonville Center
Wed 01:35:03 PM 32.1842 -81.1742 18° North 465 535 33,000  Level Jacksonville Center
Wed 01:36:04 PM 32.2978 -81.0911 32° Northeast 465 535 33,000  Level Jacksonville Center
Wed 01:37:04 PM 32.4094 -81.0125 31° Northeast 470 541 33,000  Level Jacksonville Center
Wed 01:38:04 PM 32.5228 -80.9289 32° Northeast 470 541 33,000  Level Jacksonville Center
Wed 01:39:04 PM 32.6342 -80.8450 32° Northeast 469 540 33,000  Level Jacksonville Center
Wed 01:40:04 PM 32.7478 -80.7658 30° Northeast 469 540 33,000  Level Jacksonville Center
Wed 01:41:04 PM 32.8611 -80.6817 32° Northeast 469 540 33,000  Level Jacksonville Center
Wed 01:42:04 PM 32.9744 -80.5997 31° Northeast 469 540 33,000  Level Jacksonville Center
Wed 01:43:04 PM 33.0878 -80.5200 31° Northeast 469 540 33,000  Level Jacksonville Center
Wed 01:44:04 PM 33.2133 -80.4272 32° Northeast 469 540 33,000  Level Jacksonville Center
Wed 01:45:04 PM 33.3267 -80.3444 31° Northeast 469 540 33,000  Level Jacksonville Center
Wed 01:46:04 PM 33.4375 -80.2592 33° Northeast 469 540 33,000  Level Jacksonville Center
Wed 01:47:04 PM 33.5525 -80.1736 32° Northeast 469 540 33,000  Level Jacksonville Center
Wed 01:48:04 PM 33.6633 -80.0903 32° Northeast 469 540 33,000  Level Jacksonville Center
Wed 01:49:04 PM 33.7764 -80.0067 32° Northeast 469 540 33,000  Level Jacksonville Center
Wed 01:50:04 PM 33.8869 -79.9206 33° Northeast 469 540 33,000  Level Jacksonville Center
Wed 01:51:03 PM 34.0017 -79.8339 32° Northeast 469 540 33,000  Level Jacksonville Center
Wed 01:52:04 PM 34.1122 -79.7500 32° Northeast 469 540 33,000  Level Jacksonville Center
Wed 01:53:04 PM 34.2269 -79.6653 31° Northeast 469 540 33,000  Level Jacksonville Center
Wed 01:54:04 PM 34.3297 -79.6061 25° Northeast 454 522 33,000  Level Jacksonville Center
Wed 01:54:31 PM 34.3869 -79.5781 22° Northeast 472 543 33,000  Level Washington Center
Wed 01:55:31 PM 34.5081 -79.5133 24° Northeast 479 551 33,000  Level Washington Center
Wed 01:56:31 PM 34.6292 -79.4486 24° Northeast 479 551 33,000  Level Washington Center
Wed 01:57:31 PM 34.7481 -79.3861 23° Northeast 467 537 33,000  Level Washington Center
Wed 01:58:31 PM 34.8689 -79.3208 24° Northeast 467 537 33,000  Level Washington Center
Wed 01:59:31 PM 35.0006 -79.2508 24° Northeast 467 537 33,000  Level Washington Center
Wed 02:00:31 PM 35.1108 -79.1922 23° Northeast 467 537 33,000 -100 Level Washington Center
Wed 02:01:31 PM 35.2317 -79.1239 25° Northeast 467 537 32,800 -300 Descending Washington Center
Wed 02:02:31 PM 35.3569 -79.0581 23° Northeast 467 537 32,400 -600 Descending Washington Center
Wed 02:03:31 PM 35.4819 -78.9897 24° Northeast 472 543 31,600 -800 Descending Washington Center
Wed 02:04:31 PM 35.6092 -78.9183 25° Northeast 485 558 30,800 -800 Descending Washington Center
Wed 02:05:31 PM 35.7339 -78.8519 23° Northeast 491 565 30,000 -850 Descending Washington Center
Wed 02:06:31 PM 35.8589 -78.7828 24° Northeast 486 559 29,100 -800 Descending Washington Center
Wed 02:07:31 PM 35.9903 -78.7086 25° Northeast 481 554 28,400 -800 Descending Washington Center
Wed 02:08:31 PM 36.1111 -78.6414 24° Northeast 476 548 27,500 -700 Descending Washington Center
Wed 02:09:31 PM 36.2294 -78.5739 25° Northeast 471 542 27,000 -250 Descending Washington Center
Wed 02:10:31 PM 36.3500 -78.5061 24° Northeast 466 536 27,000  Level Washington Center
Wed 02:11:31 PM 36.4706 -78.4383 24° Northeast 466 536 27,000  Level Washington Center
Wed 02:12:31 PM 36.5892 -78.3728 24° Northeast 466 536 27,000  Level Washington Center
Wed 02:13:31 PM 36.6969 -78.3094 25° Northeast 466 536 27,000  Level Washington Center
Wed 02:14:31 PM 36.8175 -78.2408 24° Northeast 466 536 27,000 -200 Level Washington Center
Wed 02:15:31 PM 36.9358 -78.1722 25° Northeast 466 536 26,600 -500 Descending Washington Center
Wed 02:16:31 PM 37.0519 -78.1033 25° Northeast 466 536 26,000 -750 Descending Washington Center
Wed 02:17:31 PM 37.1722 -78.0367 24° Northeast 466 536 25,100 -1,000 Descending Washington Center
Wed 02:18:31 PM 37.2947 -77.9650 25° Northeast 466 536 24,000 -550 Descending Washington Center
Wed 02:19:31 PM 37.4128 -77.8953 25° Northeast 466 536 24,000 -1,050 Level Washington Center
Wed 02:20:31 PM 37.5308 -77.8283 24° Northeast 466 536 21,900 -2,150 Descending Washington Center
Wed 02:21:31 PM 37.6447 -77.7608 25° Northeast 466 536 19,700 -2,200 Descending Washington Center
Wed 02:22:31 PM 37.7544 -77.6956 25° Northeast 448 516 17,500 -2,300 Descending Washington Center
Wed 02:23:31 PM 37.8597 -77.6356 24° Northeast 423 487 15,100 -2,400 Descending Washington Center
Wed 02:24:31 PM 37.9628 -77.5750 25° Northeast 412 474 12,700 -2,400 Descending Washington Center
Wed 02:25:31 PM 38.0639 -77.5169 24° Northeast 399 459 10,300 -1,350 Descending Washington Center
Wed 02:26:31 PM 38.1544 -77.4586 27° Northeast 361 415 10,000 -150 Descending Washington Center
Wed 02:27:31 PM 38.2261 -77.4181 24° Northeast 308 354 10,000 -550 Level Washington Center
Wed 02:28:31 PM 38.3019 -77.3722 25° Northeast 298 343 8,900 -1,250 Descending Washington Center
Wed 02:29:31 PM 38.3814 -77.3558 North 298 343 7,500 -1,300 Descending Washington Center
Wed 02:30:31 PM 38.4583 -77.3575 359° North 280 322 6,300 -1,250 Descending Washington Center
Wed 02:31:31 PM 38.5375 -77.3619 357° North 280 322 5,000 -900 Descending Washington Center
Wed 02:32:31 PM 38.6147 -77.3611 360° North 275 316 4,500 -500 Descending Washington Center
Wed 02:33:31 PM 38.6919 -77.3606 360° North 270 311 4,000 -250 Descending Washington Center
Wed 02:34:31 PM 38.7753 -77.3572 North 270 311 4,000 11,500 Level Washington Center
Wed 02:35:31 PM 38.8483 -77.3508 North 270 311 27,000  Climbing Washington Center
Wed 02:36:44 PM 38.9500 -77.3500 360° North 260 299 4,000 -10,955 Descending Potomac TRACON
Wed 02:37:43 PM 39.0000 -77.3500 360° North 219 252 2,900 -1,000 Descending Potomac TRACON
Wed 02:38:44 PM 39.0500 -77.3667 345° North 212 244 2,000 -446 Descending Potomac TRACON
Wed 02:39:44 PM 39.0333 -77.4167 247° West 188 216 2,000 -400 Level Potomac TRACON
Wed 02:40:44 PM 39.0000 -77.4333 201° Southwest 142 163 1,200 -800 Descending Potomac TRACON
Wed 02:42:00 PM 38.9474 -77.4599 195° South  Level Estimated
Wed 02:49:00 PM 38.9474 -77.4599 195° South  Level Estimated
Wed 02:50:00 PM 38.9474 -77.4599 195° South  Level Estimated
Wed 02:51:00 PM 38.9474 -77.4599 195° South  Level Estimated

Login

Don't have an account? Register now (free) for customized features, flight alerts, and more!